Time;durP1;ratioP1;P1;durP2;ratioP2;P2;SDS_P1;SDS_P2;PMS_P1;PMS_P2;Temp;Humidity;BMP_temperature;BMP_pressure;BME280_temperature;BME280_humidity;BME280_pressure;Samples;Min_cycle;Max_cycle;Signal;HPM_P1;HPM_P2
2022/01/24 00:05:13;;;;;;;73.67;68.23;;;;;;;6.73;100.00;103428.00;1846374;75;86270;-74
2022/01/24 00:11:04;;;;;;;70.33;65.43;;;;;;;6.53;100.00;103424.18;1890010;74;86527;-75
2022/01/24 00:17:06;;;;;;;74.60;69.23;;;;;;;6.48;100.00;103419.77;1938565;72;85349;-74
2022/01/24 00:28:51;;;;;;;75.80;70.50;;;;;;;6.44;100.00;103408.78;1900269;74;85228;-74
2022/01/24 00:34:35;;;;;;;75.23;69.63;;;;;;;6.42;100.00;103404.83;1976780;71;39623;-74
2022/01/24 00:40:20;;;;;;;79.03;73.33;;;;;;;6.36;100.00;103406.48;1828928;76;85980;-74
2022/01/24 00:46:16;;;;;;;77.50;71.57;;;;;;;6.35;100.00;103403.38;1840655;76;86634;-75
2022/01/24 00:57:53;;;;;;;75.90;70.70;;;;;;;6.47;100.00;103401.48;1838288;76;85690;-75
2022/01/24 01:03:38;;;;;;;75.10;69.80;;;;;;;6.39;100.00;103398.32;1943594;72;86435;-74
2022/01/24 01:21:28;;;;;;;76.10;70.50;;;;;;;6.39;100.00;103405.22;1986540;71;39549;-75
2022/01/24 01:27:18;;;;;;;76.33;70.87;;;;;;;6.46;100.00;103410.28;1930075;72;86248;-75
2022/01/24 01:33:08;;;;;;;72.33;67.43;;;;;;;6.54;100.00;103408.81;1883171;74;86645;-74
2022/01/24 01:39:30;;;;;;;72.10;67.00;;;;;;;6.77;100.00;103401.16;1911482;74;86198;-74
2022/01/24 01:56:44;;;;;;;71.73;66.73;;;;;;;6.70;100.00;103384.20;1928760;73;86279;-74
2022/01/24 02:02:29;;;;;;;71.23;66.27;;;;;;;6.84;100.00;103377.77;1948779;71;39431;-75
2022/01/24 02:08:12;;;;;;;74.80;69.60;;;;;;;6.77;100.00;103371.30;1847041;76;86074;-75
2022/01/24 02:14:00;;;;;;;71.77;66.57;;;;;;;6.69;100.00;103383.34;1872390;75;86198;-74
2022/01/24 02:20:03;;;;;;;75.00;69.80;;;;;;;6.66;100.00;103380.13;1907734;72;86808;-75
2022/01/24 02:25:35;;;;;;;71.77;66.70;;;;;;;6.66;100.00;103381.52;1982256;71;39362;-74
2022/01/24 02:37:42;;;;;;;69.37;64.57;;;;;;;6.64;100.00;103386.36;1936678;73;86372;-75
2022/01/24 02:49:39;;;;;;;72.87;67.60;;;;;;;6.80;100.00;103370.92;1913632;74;86310;-74
2022/01/24 02:55:25;;;;;;;71.07;65.97;;;;;;;6.68;100.00;103382.16;1940839;71;39583;-74
2022/01/24 03:01:09;;;;;;;70.83;65.77;;;;;;;6.76;100.00;103375.14;1882622;75;86536;-74
2022/01/24 03:06:52;;;;;;;68.23;63.53;;;;;;;6.68;100.00;103373.34;1886036;74;86141;-74
2022/01/24 03:12:41;;;;;;;67.33;62.70;;;;;;;6.79;100.00;103367.83;1911438;72;86298;-74
2022/01/24 03:18:26;;;;;;;64.77;60.27;;;;;;;6.74;100.00;103357.38;1974230;71;39564;-75
2022/01/24 03:24:11;;;;;;;64.63;60.17;;;;;;;6.76;100.00;103354.42;1825115;76;86224;-75
2022/01/24 03:29:56;;;;;;;66.47;61.87;;;;;;;6.67;100.00;103341.28;1871807;75;86209;-74
2022/01/24 03:35:42;;;;;;;69.37;64.57;;;;;;;6.59;100.00;103339.18;1932970;71;85661;-75
2022/01/24 03:41:27;;;;;;;66.77;62.07;;;;;;;6.66;100.00;103329.03;1984126;71;39614;-74
2022/01/24 03:47:30;;;;;;;67.87;62.97;;;;;;;6.68;100.00;103330.53;1829362;76;86471;-75
2022/01/24 03:53:00;;;;;;;70.47;65.27;;;;;;;6.64;100.00;103321.46;1882098;73;86439;-74
2022/01/24 03:58:47;;;;;;;76.07;70.63;;;;;;;6.54;100.00;103327.34;1934162;72;86033;-75
2022/01/24 04:04:31;;;;;;;67.53;62.43;;;;;;;6.54;100.00;103320.44;1948985;72;39654;-74
2022/01/24 04:10:18;;;;;;;72.07;66.57;;;;;;;6.42;100.00;103332.21;1836514;76;86634;-74
2022/01/24 04:22:03;;;;;;;73.30;67.63;;;;;;;6.39;100.00;103320.50;1881424;74;86542;-74
2022/01/24 04:27:47;;;;;;;71.83;66.40;;;;;;;6.31;100.00;103315.63;1918902;74;86671;-74
2022/01/24 04:33:32;;;;;;;70.83;65.73;;;;;;;6.30;100.00;103321.67;1984960;71;39703;-74
2022/01/24 04:39:18;;;;;;;68.90;64.07;;;;;;;6.35;100.00;103322.47;1981767;69;86472;-75
2022/01/24 04:45:23;;;;;;;64.60;59.60;;;;;;;6.40;100.00;103318.08;1884372;73;85795;-74
2022/01/24 04:51:06;;;;;;;67.33;62.43;;;;;;;6.33;100.00;103319.89;1884504;75;86117;-74
2022/01/24 04:56:46;;;;;;;71.90;66.63;;;;;;;6.23;100.00;103321.28;1907402;74;86589;-75
2022/01/24 05:02:31;;;;;;;67.80;62.83;;;;;;;6.26;100.00;103321.73;1923178;71;39574;-74
2022/01/24 05:08:15;;;;;;;68.93;63.83;;;;;;;6.33;100.00;103324.03;1863205;75;86568;-74
2022/01/24 05:26:04;;;;;;;70.87;65.77;;;;;;;6.32;100.00;103323.73;1889168;73;86346;-74
2022/01/24 05:31:50;;;;;;;68.27;63.10;;;;;;;6.22;100.00;103325.09;1904284;74;86328;-75
2022/01/24 05:37:35;;;;;;;67.53;62.50;;;;;;;6.27;100.00;103327.59;1980058;71;39718;-74
2022/01/24 05:43:21;;;;;;;64.57;59.77;;;;;;;6.19;100.00;103340.66;1810665;78;86351;-74
2022/01/24 05:49:06;;;;;;;64.17;59.30;;;;;;;6.25;100.00;103343.48;1801310;78;86577;-77
2022/01/24 05:54:52;;;;;;;65.03;60.13;;;;;;;6.23;100.00;103353.88;1920884;73;86474;-74
2022/01/24 06:00:38;;;;;;;66.90;61.80;;;;;;;6.23;100.00;103355.27;1861920;75;86728;-74
2022/01/24 06:06:21;;;;;;;65.50;60.47;;;;;;;6.18;100.00;103356.37;1808501;78;86311;-73
2022/01/24 06:12:07;;;;;;;68.17;63.07;;;;;;;6.24;100.00;103350.08;1808606;78;86591;-73
2022/01/24 06:17:51;;;;;;;67.33;62.23;;;;;;;6.10;100.00;103351.48;1914815;74;86145;-75
2022/01/24 06:23:35;;;;;;;68.43;62.87;;;;;;;6.18;100.00;103353.61;1943017;71;39823;-74
2022/01/24 06:29:20;;;;;;;67.97;62.97;;;;;;;6.15;100.00;103351.25;1838362;75;85743;-74
2022/01/24 06:35:04;;;;;;;68.73;63.50;;;;;;;6.24;100.00;103348.70;1842283;76;86216;-74
2022/01/24 06:40:48;;;;;;;65.70;60.53;;;;;;;6.21;100.00;103357.87;1898365;73;86286;-74
2022/01/24 06:46:33;;;;;;;65.23;60.00;;;;;;;6.13;100.00;103364.38;1973530;71;39575;-75
2022/01/24 06:52:18;;;;;;;66.17;61.07;;;;;;;6.07;100.00;103359.65;1827115;76;86637;-74
2022/01/24 06:58:03;;;;;;;68.43;63.37;;;;;;;6.12;100.00;103363.20;1884151;74;86456;-73
2022/01/24 07:03:49;;;;;;;66.60;61.47;;;;;;;6.07;100.00;103358.78;1936694;72;86276;-73
2022/01/24 07:09:37;;;;;;;66.13;61.03;;;;;;;6.08;100.00;103361.33;1982392;71;39595;-74
2022/01/24 07:15:45;;;;;;;68.83;63.53;;;;;;;6.06;100.00;103375.00;1865399;76;86290;-75
2022/01/24 07:24:32;;;;;;;65.27;60.23;;;;;;;6.00;100.00;103382.14;1979208;69;39655;-74
2022/01/24 07:30:22;;;;;;;66.47;61.27;;;;;;;6.01;100.00;103388.00;1847690;76;86350;-75
2022/01/24 07:36:08;;;;;;;70.57;64.97;;;;;;;6.09;100.00;103396.16;1808689;78;85423;-75
2022/01/24 07:42:02;;;;;;;67.30;62.20;;;;;;;6.01;100.00;103407.31;1926849;73;87033;-75
2022/01/24 07:47:47;;;;;;;69.43;63.63;;;;;;;6.02;100.00;103408.17;1919956;72;86297;-74
2022/01/24 07:53:38;;;;;;;66.10;61.00;;;;;;;5.95;100.00;103424.62;1977915;71;39625;-74
2022/01/24 07:59:23;;;;;;;68.53;62.93;;;;;;;5.94;100.00;103429.84;1876250;74;86303;-73
2022/01/24 08:05:09;;;;;;;64.60;59.50;;;;;;;5.94;100.00;103431.22;1808672;78;85502;-74
2022/01/24 08:10:53;;;;;;;67.60;62.10;;;;;;;5.92;100.00;103422.25;1894529;74;86589;-71
2022/01/24 08:16:39;;;;;;;67.90;62.40;;;;;;;5.89;100.00;103424.03;1925859;71;86132;-73
2022/01/24 08:22:23;;;;;;;70.17;64.60;;;;;;;6.03;100.00;103428.69;1945673;71;39577;-74
2022/01/24 08:28:08;;;;;;;67.80;62.50;;;;;;;6.02;100.00;103424.20;1900683;74;86263;-72
2022/01/24 08:33:52;;;;;;;69.80;64.23;;;;;;;5.93;100.00;103430.88;1871183;74;85667;-75
2022/01/24 08:39:37;;;;;;;73.83;68.00;;;;;;;5.83;100.00;103429.75;1869682;75;86203;-73
2022/01/24 08:51:24;;;;;;;69.87;64.00;;;;;;;5.90;100.00;103438.98;1960592;71;39744;-74
2022/01/24 08:57:09;;;;;;;67.50;61.90;;;;;;;5.96;100.00;103436.00;1909674;74;86781;-73
2022/01/24 09:02:54;;;;;;;71.67;65.67;;;;;;;5.93;100.00;103437.25;1853756;76;86560;-74
2022/01/24 09:08:38;;;;;;;70.23;64.57;;;;;;;5.98;100.00;103433.06;1939024;73;86628;-74
2022/01/24 09:14:22;;;;;;;72.80;66.67;;;;;;;5.92;100.00;103443.81;1874133;75;85608;-73
2022/01/24 09:20:09;;;;;;;73.00;67.13;;;;;;;5.91;100.00;103447.61;1807345;78;86547;-74
2022/01/24 09:25:54;;;;;;;73.80;67.80;;;;;;;5.94;100.00;103447.77;1882840;75;85408;-73
2022/01/24 09:31:38;;;;;;;73.23;67.23;;;;;;;5.90;100.00;103447.81;1909057;74;86035;-75
2022/01/24 09:37:23;;;;;;;73.07;67.00;;;;;;;5.94;100.00;103457.42;1891175;74;85941;-75
2022/01/24 09:43:07;;;;;;;71.40;65.63;;;;;;;5.98;100.00;103446.34;1807386;78;86191;-74
2022/01/24 09:48:54;;;;;;;71.27;65.40;;;;;;;5.93;100.00;103458.46;1912425;72;86341;-74
2022/01/24 09:54:39;;;;;;;69.47;63.77;;;;;;;6.01;100.00;103466.64;1915329;74;85764;-72
2022/01/24 10:00:26;;;;;;;73.33;67.53;;;;;;;6.08;100.00;103455.67;1808361;78;86325;-74
2022/01/24 10:06:09;;;;;;;73.57;67.43;;;;;;;5.97;100.00;103455.66;1881148;73;86080;-74
2022/01/24 10:12:13;;;;;;;75.20;69.17;;;;;;;6.02;100.00;103444.91;1880501;73;86274;-74
2022/01/24 10:17:58;;;;;;;72.40;66.63;;;;;;;6.06;100.00;103462.78;1835325;76;86665;-76
2022/01/24 10:23:45;;;;;;;73.50;67.50;;;;;;;6.14;100.00;103456.30;1907761;74;86249;-75
2022/01/24 10:29:29;;;;;;;76.47;70.27;;;;;;;6.04;100.00;103455.73;1914438;73;86050;-72
2022/01/24 10:35:26;;;;;;;75.50;69.40;;;;;;;6.00;100.00;103458.54;1802529;78;86141;-74
2022/01/24 10:41:49;;;;;;;73.37;67.27;;;;;;;6.05;100.00;103454.69;1977250;71;39392;-75
2022/01/24 10:47:22;;;;;;;77.97;71.37;;;;;;;6.03;100.00;103455.42;1977635;71;39534;-75
2022/01/24 10:53:14;;;;;;;74.23;68.13;;;;;;;6.09;100.00;103468.43;1809812;76;86853;-74
2022/01/24 10:59:07;;;;;;;75.70;69.57;;;;;;;6.07;100.00;103465.88;1797564;78;86322;-71
2022/01/24 11:04:54;;;;;;;76.20;70.03;;;;;;;6.12;100.00;103476.34;1909766;74;86834;-74
2022/01/24 11:10:41;;;;;;;76.00;69.97;;;;;;;5.99;100.00;103470.09;1912313;72;86534;-74
2022/01/24 11:16:26;;;;;;;75.20;69.03;;;;;;;6.21;100.00;103473.27;1982697;71;39516;-69
2022/01/24 11:22:19;;;;;;;74.57;68.40;;;;;;;6.24;100.00;103466.53;1859272;75;85352;-73
2022/01/24 11:27:59;;;;;;;75.37;69.77;;;;;;;6.06;100.00;103471.06;1795169;78;86300;-70
2022/01/24 11:33:48;;;;;;;72.23;66.57;;;;;;;6.05;100.00;103472.10;1843625;76;86182;-74
2022/01/24 11:39:33;;;;;;;69.53;64.03;;;;;;;6.18;100.00;103467.28;1852075;76;86599;-74
2022/01/24 11:45:25;;;;;;;70.10;64.60;;;;;;;6.15;100.00;103470.44;1982596;71;39623;-70
2022/01/24 11:51:12;;;;;;;68.60;63.03;;;;;;;6.30;100.00;103456.08;1827809;76;86306;-70
2022/01/24 11:57:25;;;;;;;69.67;64.37;;;;;;;6.12;100.00;103452.89;1808005;78;86436;-73
2022/01/24 12:00:16;;;;;;;67.10;61.97;;;;;;;6.00;100.00;103459.39;1769763;79;934767;-72
2022/01/24 12:06:09;;;;;;;68.37;62.93;;;;;;;6.15;100.00;103449.22;1801721;78;86383;-70
2022/01/24 12:11:50;;;;;;;66.73;61.50;;;;;;;6.16;100.00;103452.28;1872239;75;86123;-74
2022/01/24 12:21:14;;;;;;;69.63;64.03;;;;;;;6.29;100.00;103440.03;1851922;76;86286;-74
2022/01/24 12:27:07;;;;;;;68.43;62.93;;;;;;;6.28;100.00;103433.34;1879257;75;86216;-75
2022/01/24 12:32:58;;;;;;;67.47;62.17;;;;;;;6.30;100.00;103426.57;1819114;77;85596;-73
2022/01/24 12:38:45;;;;;;;71.63;65.87;;;;;;;6.30;100.00;103419.67;1907547;73;86007;-69
2022/01/24 12:50:44;;;;;;;70.90;65.40;;;;;;;6.41;100.00;103411.42;1909502;74;86053;-70
2022/01/24 12:56:32;;;;;;;69.03;63.63;;;;;;;6.38;100.00;103408.50;1933076;71;86170;-71
2022/01/24 13:05:23;;;;;;;70.40;64.80;;;;;;;6.20;100.00;103410.86;1974391;69;39534;-74
2022/01/24 13:07:56;;;;;;;69.23;63.73;;;;;;;6.32;100.00;103414.83;1922675;73;934778;-70
2022/01/24 13:10:30;;;;;;;71.40;65.63;;;;;;;6.21;100.00;103408.41;1922619;73;938751;-74
2022/01/24 13:13:06;;;;;;;71.25;65.57;;;;;;;6.23;100.00;103415.12;1919624;73;936630;-73
2022/01/24 13:21:22;;;;;;;70.40;64.40;;;;;;;6.18;100.00;103405.19;1906314;71;938620;-73
2022/01/24 13:23:55;;;;;;;69.30;63.60;;;;;;;6.30;100.00;103407.25;1918706;73;936806;-70
2022/01/24 13:26:25;;;;;;;69.50;63.83;;;;;;;6.19;100.00;103411.91;1906582;73;939048;-70
2022/01/24 13:29:04;;;;;;;70.67;64.73;;;;;;;6.30;100.00;103410.53;1899619;73;936854;-70
2022/01/24 13:31:34;;;;;;;67.97;62.47;;;;;;;6.25;100.00;103409.73;1877160;73;938951;-73
2022/01/24 13:37:18;;;;;;;71.50;65.77;;;;;;;6.31;100.00;103394.30;1981499;71;39961;-70
2022/01/24 13:43:11;;;;;;;67.90;62.50;;;;;;;6.44;100.00;103381.17;1907248;74;86151;-69
2022/01/24 13:49:02;;;;;;;69.77;64.37;;;;;;;6.43;100.00;103365.65;1806926;78;86072;-71
2022/01/24 13:54:48;;;;;;;67.80;62.30;;;;;;;6.24;100.00;103368.55;1889036;75;86447;-75
2022/01/24 14:00:33;;;;;;;67.47;62.03;;;;;;;6.43;100.00;103360.12;1911203;74;85943;-70
2022/01/24 14:06:21;;;;;;;68.37;63.00;;;;;;;6.49;100.00;103362.97;1978570;71;39716;-70
2022/01/24 14:12:20;;;;;;;70.30;64.63;;;;;;;6.34;100.00;103374.06;1986400;71;39677;-70
2022/01/24 14:18:28;;;;;;;70.40;64.67;;;;;;;6.20;100.00;103369.98;1825043;76;86243;-70
2022/01/24 14:31:12;;;;;;;66.57;61.47;;;;;;;6.18;100.00;103363.79;1949977;72;86304;-71
2022/01/24 14:37:04;;;;;;;70.43;64.73;;;;;;;6.16;100.00;103364.53;1883988;74;86376;-73
2022/01/24 14:42:47;;;;;;;72.37;66.47;;;;;;;6.24;100.00;103365.78;1941416;72;86154;-71
2022/01/24 14:48:30;;;;;;;72.10;66.33;;;;;;;6.13;100.00;103367.13;1928410;73;86781;-74
2022/01/24 14:54:16;;;;;;;67.63;62.23;;;;;;;6.28;100.00;103364.34;1852275;76;86378;-74
2022/01/24 15:00:04;;;;;;;71.80;65.87;;;;;;;6.35;100.00;103360.59;1893058;74;86261;-73
2022/01/24 15:05:47;;;;;;;69.23;63.73;;;;;;;6.19;100.00;103365.51;1891155;73;85280;-70
2022/01/24 15:11:32;;;;;;;70.87;64.93;;;;;;;6.15;100.00;103355.91;1979458;71;39737;-73
2022/01/24 15:17:39;;;;;;;72.73;66.73;;;;;;;6.11;100.00;103351.31;1850021;76;86312;-73
2022/01/24 15:29:10;;;;;;;68.87;63.20;;;;;;;6.32;100.00;103358.23;1827190;76;86007;-69
2022/01/24 15:34:54;;;;;;;69.13;63.60;;;;;;;6.35;100.00;103349.55;1906701;74;86408;-72
2022/01/24 15:40:40;;;;;;;70.70;64.97;;;;;;;6.43;100.00;103353.22;1975419;71;39590;-71
2022/01/24 15:52:39;;;;;;;73.57;67.57;;;;;;;6.09;100.00;103369.09;1984209;71;39654;-74
2022/01/24 15:58:25;;;;;;;72.57;66.47;;;;;;;5.98;100.00;103370.46;1842254;76;86586;-71
2022/01/24 16:04:09;;;;;;;72.07;66.07;;;;;;;6.02;100.00;103375.92;1832521;76;86235;-73
2022/01/24 16:09:53;;;;;;;75.33;69.23;;;;;;;6.12;100.00;103379.20;1909386;74;86249;-72
2022/01/24 16:15:40;;;;;;;71.87;65.97;;;;;;;5.95;100.00;103393.75;1976395;71;39674;-71
2022/01/24 16:21:38;;;;;;;75.13;69.03;;;;;;;5.95;100.00;103399.27;1829640;75;86158;-74
2022/01/24 16:27:13;;;;;;;73.37;67.37;;;;;;;5.92;100.00;103407.09;1809285;78;86348;-69
2022/01/24 16:32:58;;;;;;;77.53;70.83;;;;;;;5.84;100.00;103405.78;1913334;72;86300;-73
2022/01/24 16:38:43;;;;;;;77.23;70.53;;;;;;;6.00;100.00;103411.11;1823372;77;86626;-71
2022/01/24 16:44:42;;;;;;;77.23;70.67;;;;;;;5.92;100.00;103413.98;1803082;78;86592;-68
2022/01/24 16:50:24;;;;;;;76.20;69.77;;;;;;;6.03;100.00;103407.13;1834671;76;86747;-73
2022/01/24 16:56:08;;;;;;;76.03;69.47;;;;;;;5.97;100.00;103414.78;1885510;74;86121;-72
2022/01/24 17:01:53;;;;;;;76.63;70.33;;;;;;;5.86;100.00;103430.77;1907224;74;86312;-72
2022/01/24 17:10:43;;;;;;;74.10;68.00;;;;;;;5.86;100.00;103419.73;1882700;74;87684;-73
2022/01/24 17:13:14;;;;;;;73.83;67.67;;;;;;;5.86;100.00;103425.77;1771063;78;934866;-74
2022/01/24 17:15:48;;;;;;;72.63;66.50;;;;;;;5.91;100.00;103430.19;1791917;78;938723;-74
2022/01/24 17:18:21;;;;;;;74.23;68.30;;;;;;;5.93;100.00;103430.88;1772653;78;937962;-73
2022/01/24 17:20:52;;;;;;;77.73;71.07;;;;;;;5.93;100.00;103434.49;1803561;77;938729;-68
2022/01/24 17:23:22;;;;;;;75.85;69.55;;;;;;;5.88;100.00;103431.45;1787844;77;936980;-77
2022/01/24 17:25:53;;;;;;;74.50;68.17;;;;;;;5.91;100.00;103431.05;1798824;77;938788;-75
2022/01/24 17:28:24;;;;;;;76.27;70.07;;;;;;;5.89;100.00;103435.92;1787144;78;937672;-69
2022/01/24 17:34:09;;;;;;;79.33;72.73;;;;;;;5.98;100.00;103428.92;1871119;75;86458;-68
2022/01/24 17:39:53;;;;;;;80.67;74.37;;;;;;;5.84;100.00;103423.70;1938012;73;86647;-77
2022/01/24 17:45:38;;;;;;;82.30;75.63;;;;;;;5.91;100.00;103428.81;1940536;71;39763;-70
2022/01/24 17:51:22;;;;;;;80.43;74.13;;;;;;;5.85;100.00;103429.56;1841283;76;85562;-71
2022/01/24 17:57:07;;;;;;;83.20;76.90;;;;;;;5.76;100.00;103425.19;1908798;73;86707;-76
2022/01/24 18:02:51;;;;;;;82.70;75.87;;;;;;;5.78;100.00;103423.08;1884245;72;108568;-74
2022/01/24 18:08:39;;;;;;;81.40;74.97;;;;;;;5.82;100.00;103432.16;1978721;71;39555;-74
2022/01/24 18:14:28;;;;;;;84.80;78.03;;;;;;;5.83;100.00;103417.33;1795983;78;86273;-76
2022/01/24 18:20:13;;;;;;;83.93;77.17;;;;;;;5.78;100.00;103422.56;1809637;78;86514;-75
2022/01/24 18:25:58;;;;;;;83.70;76.80;;;;;;;5.84;100.00;103421.81;1921888;73;86305;-75
2022/01/24 18:31:43;;;;;;;83.50;76.83;;;;;;;5.66;100.00;103432.36;1912646;73;86357;-67
2022/01/24 18:37:29;;;;;;;81.97;75.17;;;;;;;5.75;100.00;103427.61;1892002;74;85486;-76
2022/01/24 18:43:15;;;;;;;83.20;76.53;;;;;;;5.83;100.00;103428.88;1801825;78;86348;-69
2022/01/24 18:48:59;;;;;;;81.37;74.77;;;;;;;5.85;100.00;103435.08;1837057;76;86611;-67
2022/01/24 18:54:43;;;;;;;78.30;71.63;;;;;;;5.76;100.00;103429.33;1921587;73;85370;-77
2022/01/24 19:00:30;;;;;;;80.87;74.03;;;;;;;5.77;100.00;103429.66;1901805;74;86257;-75
2022/01/24 19:06:13;;;;;;;81.00;74.27;;;;;;;5.79;100.00;103433.94;1810364;78;85550;-77
2022/01/24 19:11:58;;;;;;;82.37;75.20;;;;;;;5.72;100.00;103432.13;1921023;73;86304;-68
2022/01/24 19:17:46;;;;;;;79.40;72.83;;;;;;;5.80;100.00;103437.55;1924324;73;86302;-73
2022/01/24 19:23:31;;;;;;;80.57;73.40;;;;;;;5.77;100.00;103442.94;1986940;71;39602;-73
2022/01/24 19:29:17;;;;;;;84.83;77.77;;;;;;;5.76;100.00;103452.25;1838897;76;86645;-73
2022/01/24 19:35:01;;;;;;;88.47;81.07;;;;;;;5.65;100.00;103454.63;1882310;75;86240;-76
2022/01/24 19:40:52;;;;;;;86.23;79.23;;;;;;;5.69;100.00;103456.80;1903920;74;86296;-75
2022/01/24 19:46:37;;;;;;;81.13;74.20;;;;;;;5.68;100.00;103463.37;1986681;71;39494;-67
2022/01/24 19:52:22;;;;;;;83.47;76.27;;;;;;;5.70;100.00;103458.51;1826289;76;86328;-68
2022/01/24 19:58:15;;;;;;;82.80;75.30;;;;;;;5.65;100.00;103455.45;1901863;73;86301;-76
2022/01/24 20:04:00;;;;;;;81.93;74.60;;;;;;;5.77;100.00;103454.48;1921303;72;86255;-74
2022/01/24 20:09:48;;;;;;;82.20;74.60;;;;;;;5.74;100.00;103461.22;1911906;74;86367;-77
2022/01/24 20:15:31;;;;;;;81.87;74.60;;;;;;;5.74;100.00;103462.60;1979125;70;39440;-78
2022/01/24 20:21:17;;;;;;;79.70;72.77;;;;;;;5.65;100.00;103463.73;1837283;75;86706;-75
2022/01/24 20:27:01;;;;;;;81.00;73.63;;;;;;;5.64;100.00;103462.05;1891278;73;86369;-74
2022/01/24 20:32:46;;;;;;;81.67;74.40;;;;;;;5.76;100.00;103468.80;1913361;74;85617;-67
2022/01/24 20:38:30;;;;;;;82.80;75.40;;;;;;;5.64;100.00;103461.19;1986824;71;39534;-76
2022/01/24 20:44:14;;;;;;;85.90;78.20;;;;;;;5.70;100.00;103475.58;1877327;74;86374;-68
2022/01/24 20:50:00;;;;;;;81.33;74.07;;;;;;;5.64;100.00;103469.45;1878739;75;86524;-76
2022/01/24 20:55:46;;;;;;;84.80;77.23;;;;;;;5.70;100.00;103473.68;1928575;72;86575;-75
2022/01/24 21:01:30;;;;;;;85.67;77.97;;;;;;;5.63;100.00;103473.25;1986525;71;39551;-79
2022/01/24 21:07:13;;;;;;;83.57;76.07;;;;;;;5.53;100.00;103482.30;1809148;78;86309;-75
2022/01/24 21:13:08;;;;;;;83.30;75.53;;;;;;;5.58;100.00;103488.98;1905478;74;86385;-76
2022/01/24 21:18:44;;;;;;;85.03;76.97;;;;;;;5.62;100.00;103490.31;1945208;71;85530;-70
2022/01/24 21:24:28;;;;;;;85.20;77.00;;;;;;;5.51;100.00;103499.05;1803480;78;86297;-69
2022/01/24 21:30:14;;;;;;;83.23;75.40;;;;;;;5.50;100.00;103512.50;1795630;78;86326;-67
2022/01/24 21:35:59;;;;;;;84.20;76.17;;;;;;;5.49;100.00;103529.56;1854121;76;86338;-70
2022/01/24 21:41:43;;;;;;;83.03;75.27;;;;;;;5.43;100.00;103535.80;1923360;72;86613;-68
2022/01/24 21:47:28;;;;;;;83.33;75.33;;;;;;;5.45;100.00;103535.11;1810176;78;86386;-67
2022/01/24 21:53:12;;;;;;;85.90;77.90;;;;;;;5.42;100.00;103539.62;1809718;78;86293;-67
2022/01/24 21:58:56;;;;;;;85.57;77.43;;;;;;;5.49;100.00;103546.09;1918986;72;85584;-76
2022/01/24 22:04:42;;;;;;;87.83;79.67;;;;;;;5.47;100.00;103547.34;1973517;71;39788;-74
2022/01/24 22:10:28;;;;;;;88.27;79.87;;;;;;;5.36;100.00;103550.52;1822858;76;86046;-68
2022/01/24 22:16:12;;;;;;;86.57;78.73;;;;;;;5.34;100.00;103539.70;1798667;78;86093;-67
2022/01/24 22:21:57;;;;;;;85.33;77.53;;;;;;;5.37;100.00;103549.48;1908483;72;86078;-75
2022/01/24 22:27:44;;;;;;;84.83;76.70;;;;;;;5.31;100.00;103544.18;1930298;73;86439;-75
2022/01/24 22:33:29;;;;;;;91.00;82.57;;;;;;;5.33;100.00;103545.38;1889880;74;86067;-75
2022/01/24 22:39:14;;;;;;;88.40;79.97;;;;;;;5.33;100.00;103532.47;1804739;77;86464;-66
2022/01/24 22:44:58;;;;;;;88.53;80.13;;;;;;;5.22;100.00;103534.26;1864024;75;85863;-79
2022/01/24 22:50:41;;;;;;;88.47;80.00;;;;;;;5.20;100.00;103521.20;1981633;71;39805;-68
2022/01/24 22:56:28;;;;;;;93.27;84.67;;;;;;;5.12;100.00;103515.76;1796452;78;86304;-79
2022/01/24 23:02:15;;;;;;;90.40;81.83;;;;;;;5.19;100.00;103518.10;1800301;78;85406;-78
2022/01/24 23:07:58;;;;;;;93.77;84.97;;;;;;;5.14;100.00;103526.06;1903580;72;85428;-79
2022/01/24 23:19:44;;;;;;;90.17;81.53;;;;;;;5.00;100.00;103534.63;1846762;74;107398;-75
2022/01/24 23:25:28;;;;;;;91.67;82.97;;;;;;;5.00;100.00;103539.27;1810666;78;86587;-74
2022/01/24 23:31:14;;;;;;;90.77;82.27;;;;;;;4.97;100.00;103541.84;1795815;78;86150;-74
2022/01/24 23:43:01;;;;;;;92.03;83.60;;;;;;;5.00;100.00;103535.14;1891346;74;85328;-74
2022/01/24 23:48:45;;;;;;;89.90;81.47;;;;;;;4.92;100.00;103540.70;1926234;73;86656;-67
2022/01/24 23:54:33;;;;;;;91.53;83.33;;;;;;;4.91;100.00;103543.98;1948805;71;39685;-78
